Terminal Aerodrome Forecast
Issued by NWS

Home | Current Version | Previous Version | Text Only | Print | Product List | Glossary On
Versions: 1 2 3 4 5 6 7 8 9 10 11 12 13 14 15 16 17 18 19 20 21 22 23 24 25
000
FTUS46 KOTX 272328
TAFCOE
TAF
KCOE 272328Z 2800/2824 21013G21KT P6SM SCT150 OVC200
     FM280300 20007KT P6SM SCT250
     FM282000 21006KT P6SM FEW140 BKN180
      AMD LTD TO CLD VIS AND WIND=

USA.gov is the U.S. government's official web portal to all federal, state and local government web resources and services.